createdAt,value
2018-05-21T06:56:13.128Z,20.90
2018-05-21T06:58:45.228Z,20.90
2018-05-21T07:01:16.863Z,20.80
2018-05-21T07:03:48.294Z,20.80
2018-05-21T07:06:20.596Z,21.00
2018-05-21T07:08:51.583Z,21.00
2018-05-21T07:11:25.187Z,21.10
2018-05-21T07:14:00.846Z,21.00
2018-05-21T07:16:33.081Z,21.10
2018-05-21T07:19:06.527Z,21.40
2018-05-21T07:21:39.880Z,21.40
2018-05-21T07:24:12.394Z,21.50
2018-05-21T07:26:45.334Z,21.40
2018-05-21T07:29:16.893Z,21.30
2018-05-21T07:31:50.280Z,20.90
2018-05-21T07:34:23.715Z,20.80
2018-05-21T07:36:57.174Z,21.30
2018-05-21T07:39:28.735Z,21.20
2018-05-21T07:41:59.744Z,21.30
2018-05-21T07:44:30.760Z,21.40
2018-05-21T07:47:03.616Z,21.80
2018-05-21T07:49:37.070Z,22.50
2018-05-21T07:52:08.367Z,22.50
2018-05-21T07:54:40.736Z,22.50
2018-05-21T07:57:13.577Z,22.00
2018-05-21T07:59:44.759Z,21.90
2018-05-21T08:02:17.092Z,21.60
2018-05-21T08:04:48.435Z,21.60
2018-05-21T08:07:19.487Z,21.70
2018-05-21T08:09:50.855Z,21.80
2018-05-21T08:12:23.661Z,22.30
2018-05-21T08:14:54.974Z,22.20
2018-05-21T08:17:26.358Z,22.40
2018-05-21T08:19:57.406Z,22.40
2018-05-21T08:22:29.353Z,22.30
2018-05-21T08:25:00.931Z,22.20
2018-05-21T08:27:34.264Z,22.20
2018-05-21T08:30:05.797Z,22.10
2018-05-21T08:32:36.950Z,22.20
2018-05-21T08:35:07.956Z,22.60
2018-05-21T08:37:39.039Z,22.50
2018-05-21T08:40:14.118Z,22.20
2018-05-21T08:42:46.032Z,22.40
2018-05-21T08:45:18.401Z,22.50
2018-05-21T08:47:50.073Z,22.50
2018-05-21T08:50:21.659Z,22.70
2018-05-21T08:52:53.465Z,22.50
2018-05-21T08:55:25.583Z,22.50
2018-05-21T08:57:57.397Z,22.50
2018-05-21T09:00:29.902Z,22.60
2018-05-21T09:03:02.604Z,22.90
2018-05-21T09:05:35.929Z,23.20
2018-05-21T09:08:06.957Z,23.40
2018-05-21T09:10:38.273Z,23.40
2018-05-21T09:13:10.849Z,23.10
2018-05-21T09:15:42.043Z,23.10
2018-05-21T09:18:13.869Z,22.90
2018-05-21T09:20:45.594Z,22.80
2018-05-21T09:23:21.098Z,22.70
2018-05-21T09:25:52.722Z,22.90
2018-05-21T09:28:25.219Z,23.30
2018-05-21T09:30:56.202Z,23.10
2018-05-21T09:33:27.489Z,23.10
2018-05-21T09:36:02.160Z,23.10
2018-05-21T09:38:32.973Z,23.10
2018-05-21T09:41:03.974Z,22.90
2018-05-21T09:43:36.465Z,23.00
2018-05-21T09:46:08.293Z,22.80
2018-05-21T09:48:40.097Z,22.80
2018-05-21T09:51:12.043Z,23.00
2018-05-21T09:53:43.975Z,23.00
2018-05-21T09:56:15.981Z,23.00
2018-05-21T09:58:48.591Z,23.00
2018-05-21T10:01:21.155Z,23.20
2018-05-21T10:03:53.120Z,23.00
2018-05-21T10:06:25.511Z,23.00
2018-05-21T10:08:57.832Z,23.30
2018-05-21T10:11:33.814Z,23.20
2018-05-21T10:14:05.374Z,23.00
2018-05-21T10:16:37.725Z,22.90
2018-05-21T10:19:09.971Z,22.80
2018-05-21T10:21:43.011Z,22.90
2018-05-21T10:24:14.975Z,22.90
2018-05-21T10:26:47.019Z,23.00
2018-05-21T10:29:18.046Z,23.00
2018-05-21T10:31:53.101Z,23.00
2018-05-21T10:34:24.767Z,22.90
2018-05-21T10:36:55.751Z,22.80
2018-05-21T10:39:31.873Z,22.60
2018-05-21T10:42:03.573Z,22.70
2018-05-21T10:44:36.101Z,23.00
2018-05-21T10:47:07.711Z,22.90
2018-05-21T10:49:44.284Z,23.10
2018-05-21T10:52:16.836Z,22.90
2018-05-21T10:54:48.567Z,22.90
2018-05-21T10:57:24.425Z,22.80
2018-05-21T11:00:00.132Z,22.90
2018-05-21T11:02:32.004Z,23.10
2018-05-21T11:05:03.757Z,23.20
2018-05-21T11:07:39.279Z,23.00
2018-05-21T11:10:14.461Z,22.90
2018-05-21T11:12:47.148Z,23.40
2018-05-21T11:15:25.137Z,23.30
2018-05-21T11:18:03.904Z,23.40
2018-05-21T11:20:35.800Z,23.30
2018-05-21T11:23:08.279Z,23.20
2018-05-21T11:25:45.971Z,23.20
2018-05-21T11:28:19.118Z,23.10
2018-05-21T11:30:51.374Z,23.10
2018-05-21T11:33:26.809Z,23.20
2018-05-21T11:36:02.650Z,23.30
2018-05-21T11:38:34.913Z,23.40
2018-05-21T11:41:07.373Z,23.40
2018-05-21T11:43:43.073Z,23.70
2018-05-21T11:46:18.683Z,23.90
2018-05-21T11:48:51.358Z,23.40
2018-05-21T11:51:27.317Z,23.40
2018-05-21T11:54:03.811Z,23.50
2018-05-21T11:56:35.653Z,23.70
2018-05-21T11:59:08.201Z,23.60
2018-05-21T12:01:45.065Z,23.80
2018-05-21T12:04:16.839Z,23.70
2018-05-21T12:06:49.293Z,23.70
2018-05-21T12:09:24.747Z,23.70
2018-05-21T12:12:01.389Z,23.90
2018-05-21T12:14:32.905Z,24.10
2018-05-21T12:17:07.868Z,24.20
2018-05-21T12:19:44.013Z,24.20
2018-05-21T12:22:16.881Z,24.10
2018-05-21T12:24:49.645Z,24.10
2018-05-21T12:27:26.230Z,24.20
2018-05-21T12:30:02.307Z,24.20
2018-05-21T12:32:33.964Z,24.10
2018-05-21T12:35:05.498Z,23.90
2018-05-21T12:37:41.427Z,24.00
2018-05-21T12:40:15.283Z,24.10
2018-05-21T12:42:47.131Z,24.20
2018-05-21T12:45:23.854Z,24.20
2018-05-21T12:47:59.455Z,23.90
2018-05-21T12:50:32.033Z,24.00
2018-05-21T12:53:03.439Z,24.00
2018-05-21T12:55:39.789Z,23.70
2018-05-21T12:58:15.583Z,23.60
2018-05-21T13:00:51.347Z,23.60
2018-05-21T13:03:27.879Z,24.40
2018-05-21T13:06:03.576Z,24.30
2018-05-21T13:08:35.409Z,24.40
2018-05-21T13:11:08.736Z,24.30
2018-05-21T13:13:46.985Z,24.20
2018-05-21T13:16:18.781Z,24.10
2018-05-21T13:18:51.265Z,24.40
2018-05-21T13:21:26.965Z,24.40
2018-05-21T13:24:04.224Z,24.50
2018-05-21T13:26:35.995Z,24.30
2018-05-21T13:29:07.827Z,24.20
2018-05-21T13:31:43.468Z,24.40
2018-05-21T13:34:15.198Z,24.40
2018-05-21T13:36:47.639Z,24.40
2018-05-21T13:39:23.745Z,24.40
2018-05-21T13:41:59.244Z,24.30
2018-05-21T13:44:31.012Z,24.20
2018-05-21T13:47:02.604Z,24.50
2018-05-21T13:49:38.667Z,24.60
2018-05-21T13:52:14.605Z,24.70
2018-05-21T13:54:51.565Z,24.50
2018-05-21T13:57:26.885Z,24.40
2018-05-21T14:00:02.855Z,24.40
2018-05-21T14:02:34.657Z,24.30
2018-05-21T14:05:06.333Z,24.40
2018-05-21T14:07:42.905Z,24.20
2018-05-21T14:10:18.797Z,23.80
2018-05-21T14:12:50.401Z,23.70
2018-05-21T14:15:26.919Z,23.60
2018-05-21T14:18:02.545Z,23.50
2018-05-21T14:20:34.257Z,23.40
2018-05-21T14:23:06.636Z,22.90
2018-05-21T14:25:43.380Z,22.80
2018-05-21T14:28:14.971Z,22.80
2018-05-21T14:30:47.084Z,22.80
2018-05-21T14:33:22.739Z,22.80
2018-05-21T14:35:58.639Z,22.70
2018-05-21T14:38:30.749Z,22.50
2018-05-21T14:41:02.577Z,22.40
2018-05-21T14:43:38.193Z,22.30
2018-05-21T14:46:13.912Z,22.30
2018-05-21T14:48:49.537Z,22.30
2018-05-21T14:51:25.977Z,22.50
2018-05-21T14:54:02.538Z,22.70
2018-05-21T14:56:39.831Z,22.90
2018-05-21T14:59:12.511Z,22.70
2018-05-21T15:01:49.681Z,22.60
2018-05-21T15:04:21.491Z,22.60
2018-05-21T15:06:53.310Z,22.70
2018-05-21T15:09:29.471Z,22.70
2018-05-21T15:12:07.408Z,22.60
2018-05-21T15:14:39.174Z,22.60
2018-05-21T15:17:11.075Z,22.50
2018-05-21T15:19:45.890Z,22.40
2018-05-21T15:22:17.582Z,22.60
2018-05-21T15:24:49.523Z,22.60
2018-05-21T15:27:26.539Z,22.40
2018-05-21T15:30:02.290Z,22.30
2018-05-21T15:32:34.088Z,22.10
2018-05-21T15:35:05.728Z,21.80
2018-05-21T15:37:42.049Z,21.60
2018-05-21T15:40:18.349Z,21.60
2018-05-21T15:42:50.010Z,21.60
2018-05-21T15:45:26.229Z,21.60
2018-05-21T15:48:04.107Z,21.40
2018-05-21T15:50:35.835Z,21.40
2018-05-21T15:53:07.637Z,21.40
2018-05-21T15:55:43.811Z,21.40
2018-05-21T15:58:16.395Z,21.20
2018-05-21T16:00:53.155Z,21.20
2018-05-21T16:03:30.090Z,21.00
2018-05-21T16:06:05.569Z,21.00
2018-05-21T16:08:37.682Z,21.00
2018-05-21T16:11:09.761Z,21.00
2018-05-21T16:13:45.781Z,20.90
2018-05-21T16:16:18.224Z,20.80
2018-05-21T16:18:50.035Z,20.80
2018-05-21T16:21:26.633Z,20.80
2018-05-21T16:24:03.473Z,20.70
2018-05-21T16:26:34.979Z,20.60
2018-05-21T16:29:06.637Z,20.50
2018-05-21T16:31:42.368Z,20.50
2018-05-21T16:34:19.373Z,20.50
2018-05-21T16:36:55.115Z,20.60
2018-05-21T16:39:31.633Z,20.60
2018-05-21T16:42:07.193Z,20.50
2018-05-21T16:44:40.055Z,20.50
2018-05-21T16:47:12.405Z,20.30
2018-05-21T16:49:48.146Z,20.30
2018-05-21T16:52:20.310Z,20.30
2018-05-21T16:54:52.418Z,20.20
2018-05-21T16:57:28.394Z,20.00
2018-05-21T17:00:06.014Z,20.00
2018-05-21T17:02:38.421Z,19.90
2018-05-21T17:05:09.869Z,19.90
2018-05-21T17:07:45.777Z,19.80
2018-05-21T17:10:18.027Z,19.70
2018-05-21T17:12:53.877Z,19.60
2018-05-21T17:15:30.377Z,19.60
2018-05-21T17:18:06.140Z,19.60
2018-05-21T17:20:39.145Z,19.50
2018-05-21T17:23:10.940Z,19.50
2018-05-21T17:25:46.393Z,19.40
2018-05-21T17:28:17.478Z,19.40
2018-05-21T17:30:48.717Z,19.30
2018-05-21T17:33:23.644Z,19.20
2018-05-21T17:36:00.515Z,19.10
2018-05-21T17:38:31.513Z,19.00
2018-05-21T17:41:02.806Z,19.00
2018-05-21T17:43:38.526Z,18.90
2018-05-21T17:46:14.993Z,18.90
2018-05-21T17:48:46.023Z,18.80
2018-05-21T17:51:21.228Z,18.80
2018-05-21T17:53:56.024Z,18.70
2018-05-21T17:56:28.116Z,18.60
2018-05-21T17:58:59.101Z,18.50
2018-05-21T18:01:35.430Z,18.40
2018-05-21T18:04:10.994Z,18.40
2018-05-21T18:06:42.115Z,18.30
2018-05-21T18:09:13.075Z,18.20
2018-05-21T18:11:48.439Z,18.20
2018-05-21T18:14:23.689Z,18.10
2018-05-21T18:16:54.762Z,18.00
2018-05-21T18:19:30.015Z,17.90
2018-05-21T18:22:05.379Z,17.90
2018-05-21T18:24:36.489Z,17.80
2018-05-21T18:27:12.929Z,17.70
2018-05-21T18:29:48.867Z,17.40
2018-05-21T18:32:19.931Z,17.40
2018-05-21T18:34:51.951Z,17.20
2018-05-21T18:37:27.579Z,17.10
2018-05-21T18:40:02.715Z,17.00
2018-05-21T18:42:34.241Z,17.00
2018-05-21T18:45:05.655Z,16.80
2018-05-21T18:47:40.803Z,16.70
2018-05-21T18:50:15.341Z,16.60
2018-05-21T18:52:47.301Z,16.50
2018-05-21T18:55:23.019Z,16.40
2018-05-21T18:57:54.245Z,16.40
2018-05-21T19:00:25.327Z,16.30
2018-05-21T19:02:56.493Z,16.20
2018-05-21T19:05:32.197Z,16.10
2018-05-21T19:08:07.847Z,16.00
2018-05-21T19:10:39.587Z,16.00
2018-05-21T19:13:10.645Z,15.90
2018-05-21T19:15:45.449Z,15.80
2018-05-21T19:18:16.562Z,15.70
2018-05-21T19:20:49.858Z,15.50
2018-05-21T19:23:25.025Z,15.40
2018-05-21T19:25:59.921Z,15.40
2018-05-21T19:28:32.010Z,15.30
2018-05-21T19:31:03.216Z,15.20
2018-05-21T19:33:38.699Z,15.30
2018-05-21T19:36:14.799Z,15.20
2018-05-21T19:38:46.670Z,15.10
2018-05-21T19:41:21.433Z,15.10
2018-05-21T19:43:58.219Z,14.90
2018-05-21T19:46:29.339Z,14.80
2018-05-21T19:49:02.063Z,14.80
2018-05-21T19:51:36.899Z,14.70
2018-05-21T19:54:08.724Z,14.70
2018-05-21T19:56:40.641Z,14.60
2018-05-21T19:59:12.615Z,14.60
2018-05-21T20:01:47.533Z,14.60
2018-05-21T20:04:18.598Z,14.60
2018-05-21T20:06:49.723Z,14.60
2018-05-21T20:09:25.817Z,14.60
2018-05-21T20:12:00.498Z,14.50
2018-05-21T20:14:31.085Z,14.60
2018-05-21T20:17:02.286Z,14.50
2018-05-21T20:19:39.165Z,14.50
2018-05-21T20:22:13.628Z,14.40
2018-05-21T20:24:45.105Z,14.40
2018-05-21T20:27:20.033Z,14.40
2018-05-21T20:29:55.674Z,14.30
2018-05-21T20:32:27.363Z,14.20
2018-05-21T20:34:58.569Z,14.20
2018-05-21T20:37:33.763Z,14.20
2018-05-21T20:40:09.839Z,14.00
2018-05-21T20:42:41.685Z,14.00
2018-05-21T20:45:12.892Z,13.90
2018-05-21T20:47:47.653Z,13.90
2018-05-21T20:50:18.923Z,13.90
2018-05-21T20:52:50.839Z,13.90
2018-05-21T20:55:28.875Z,13.90
2018-05-21T20:58:03.547Z,13.90
2018-05-21T21:00:34.438Z,13.90
2018-05-21T21:03:06.525Z,13.80
2018-05-21T21:05:43.166Z,13.80
2018-05-21T21:08:17.979Z,13.80
2018-05-21T21:10:49.290Z,13.80
2018-05-21T21:13:23.994Z,13.80
2018-05-21T21:15:58.828Z,13.80
2018-05-21T21:18:31.652Z,13.80
2018-05-21T21:21:02.446Z,13.70
2018-05-21T21:23:38.065Z,13.70
2018-05-21T21:26:14.009Z,13.70
2018-05-21T21:28:45.508Z,13.60
2018-05-21T21:31:17.662Z,13.60
2018-05-21T21:33:53.483Z,13.60
2018-05-21T21:36:25.481Z,13.50
2018-05-21T21:38:57.389Z,13.40
2018-05-21T21:41:32.571Z,13.40
2018-05-21T21:44:07.365Z,13.20
2018-05-21T21:46:38.441Z,13.20
2018-05-21T21:49:09.259Z,13.10
2018-05-21T21:51:44.275Z,13.00
2018-05-21T21:54:15.011Z,12.90
2018-05-21T21:56:46.043Z,12.80
2018-05-21T21:59:20.454Z,12.70
2018-05-21T22:01:55.760Z,12.60
2018-05-21T22:04:26.505Z,12.50
2018-05-21T22:06:57.063Z,12.30
2018-05-21T22:09:33.607Z,12.10
2018-05-21T22:12:07.656Z,12.10
2018-05-21T22:14:39.021Z,12.10
2018-05-21T22:17:10.261Z,12.00
2018-05-21T22:19:45.116Z,11.90
2018-05-21T22:22:17.075Z,11.80
2018-05-21T22:24:48.969Z,11.60
2018-05-21T22:27:23.874Z,11.60
2018-05-21T22:29:59.517Z,11.40
2018-05-21T22:32:31.425Z,11.20
2018-05-21T22:35:02.470Z,11.20
2018-05-21T22:37:37.687Z,11.10
2018-05-21T22:40:12.317Z,11.10
2018-05-21T22:42:43.908Z,11.00
2018-05-21T22:45:19.728Z,10.90
2018-05-21T22:47:54.501Z,10.80
2018-05-21T22:50:26.137Z,10.60
2018-05-21T22:52:58.184Z,10.60
2018-05-21T22:55:33.239Z,10.50
2018-05-21T22:58:07.620Z,10.50
2018-05-21T23:00:38.484Z,10.50
2018-05-21T23:03:09.656Z,10.50
2018-05-21T23:05:44.555Z,10.50
2018-05-21T23:08:15.595Z,10.40
2018-05-21T23:10:46.771Z,10.40
2018-05-21T23:13:21.731Z,10.40
2018-05-21T23:15:57.133Z,10.40
2018-05-21T23:18:28.687Z,10.30
2018-05-21T23:21:00.885Z,10.30
2018-05-21T23:23:36.632Z,10.20
2018-05-21T23:26:07.874Z,10.20
2018-05-21T23:28:38.671Z,10.20
2018-05-21T23:31:09.782Z,10.20
2018-05-21T23:33:44.754Z,10.10
2018-05-21T23:36:15.893Z,10.00
2018-05-21T23:38:47.036Z,9.90
2018-05-21T23:41:21.794Z,9.80
2018-05-21T23:43:58.535Z,9.70
2018-05-21T23:46:29.442Z,9.60
2018-05-21T23:49:00.608Z,9.60
2018-05-21T23:51:35.403Z,9.50
2018-05-21T23:54:10.965Z,9.40
2018-05-21T23:56:42.176Z,9.40
2018-05-21T23:59:13.940Z,9.30
